Dupont, Washington
Current Conditions -  °F | °C
As of 4:34 PM on Tuesday 25 Nov 2014 (Local Time) from KGRF Reporting Station
Light Rain Light Rain  
Wind Chill: 57°   Ceiling: 500
Heat Index: 57°   Visibility: 6mi
Dew Point: 55°   Wind: 10mph
Humidity: 94%   Direction: 170°S
Pressure: 30.21"   Gusts: NA
Location:  47.1°N, 122.63°W
Report Text: KGRF 260034Z AUTO 17009KT 6SM -RA BR BKN005 BKN011 OVC022 14/13 A3021 RMK AO2 CIG 005V009 BKN005 V SCT
Loading
Personal Weather Stations






























Interactive Weather Map New forecast layout! Learn more

10-Day Weather Forecast

Advertisements
Track Severe Weather on mobile